sensor_id;sensor_type;location;lat;lon;timestamp;P1;durP1;ratioP1;P2;durP2;ratioP2
54883;SDS011;40776;52.880;6.016;2023-10-09T00:01:06;12.65;;;5.88;;
54883;SDS011;40776;52.880;6.016;2023-10-09T00:03:42;18.35;;;6.60;;
54883;SDS011;40776;52.880;6.016;2023-10-09T00:06:09;17.00;;;6.88;;
54883;SDS011;40776;52.880;6.016;2023-10-09T00:08:38;13.40;;;6.93;;
54883;SDS011;40776;52.880;6.016;2023-10-09T00:11:09;14.48;;;6.80;;
54883;SDS011;40776;52.880;6.016;2023-10-09T00:13:46;16.02;;;7.57;;
54883;SDS011;40776;52.880;6.016;2023-10-09T00:16:16;16.20;;;7.53;;
54883;SDS011;40776;52.880;6.016;2023-10-09T00:18:47;14.75;;;7.35;;
54883;SDS011;40776;52.880;6.016;2023-10-09T00:21:14;16.98;;;7.88;;
54883;SDS011;40776;52.880;6.016;2023-10-09T00:23:41;24.05;;;8.57;;
54883;SDS011;40776;52.880;6.016;2023-10-09T00:26:07;19.75;;;8.52;;
54883;SDS011;40776;52.880;6.016;2023-10-09T00:28:37;17.33;;;8.60;;
54883;SDS011;40776;52.880;6.016;2023-10-09T00:31:08;17.55;;;9.10;;
54883;SDS011;40776;52.880;6.016;2023-10-09T00:33:41;17.63;;;9.20;;
54883;SDS011;40776;52.880;6.016;2023-10-09T00:36:08;20.27;;;9.10;;
54883;SDS011;40776;52.880;6.016;2023-10-09T00:38:35;19.88;;;9.77;;
54883;SDS011;40776;52.880;6.016;2023-10-09T00:41:01;23.80;;;9.82;;
54883;SDS011;40776;52.880;6.016;2023-10-09T00:43:33;25.10;;;10.27;;
54883;SDS011;40776;52.880;6.016;2023-10-09T00:46:01;20.58;;;9.98;;
54883;SDS011;40776;52.880;6.016;2023-10-09T00:48:41;21.17;;;9.77;;
54883;SDS011;40776;52.880;6.016;2023-10-09T00:51:08;25.85;;;11.23;;
54883;SDS011;40776;52.880;6.016;2023-10-09T00:53:49;27.98;;;11.10;;
54883;SDS011;40776;52.880;6.016;2023-10-09T00:56:17;30.52;;;11.48;;
54883;SDS011;40776;52.880;6.016;2023-10-09T00:58:53;26.58;;;12.25;;
54883;SDS011;40776;52.880;6.016;2023-10-09T01:01:33;30.00;;;13.48;;
54883;SDS011;40776;52.880;6.016;2023-10-09T01:04:02;29.35;;;13.40;;
54883;SDS011;40776;52.880;6.016;2023-10-09T01:09:10;30.90;;;14.02;;
54883;SDS011;40776;52.880;6.016;2023-10-09T01:11:37;28.98;;;13.95;;
54883;SDS011;40776;52.880;6.016;2023-10-09T01:14:14;31.10;;;16.38;;
54883;SDS011;40776;52.880;6.016;2023-10-09T01:16:40;43.53;;;16.42;;
54883;SDS011;40776;52.880;6.016;2023-10-09T01:19:07;31.65;;;16.17;;
54883;SDS011;40776;52.880;6.016;2023-10-09T01:21:52;37.72;;;16.65;;
54883;SDS011;40776;52.880;6.016;2023-10-09T01:24:18;36.33;;;18.35;;
54883;SDS011;40776;52.880;6.016;2023-10-09T01:26:45;36.67;;;18.67;;
54883;SDS011;40776;52.880;6.016;2023-10-09T01:29:21;45.53;;;20.67;;
54883;SDS011;40776;52.880;6.016;2023-10-09T01:34:27;42.85;;;20.83;;
54883;SDS011;40776;52.880;6.016;2023-10-09T01:37:10;39.33;;;21.00;;
54883;SDS011;40776;52.880;6.016;2023-10-09T01:39:42;44.80;;;20.70;;
54883;SDS011;40776;52.880;6.016;2023-10-09T01:42:10;44.25;;;21.52;;
54883;SDS011;40776;52.880;6.016;2023-10-09T01:44:43;45.20;;;21.30;;
54883;SDS011;40776;52.880;6.016;2023-10-09T01:47:13;46.65;;;21.60;;
54883;SDS011;40776;52.880;6.016;2023-10-09T01:49:40;56.38;;;23.45;;
54883;SDS011;40776;52.880;6.016;2023-10-09T01:52:09;46.10;;;22.83;;
54883;SDS011;40776;52.880;6.016;2023-10-09T01:54:41;51.92;;;24.77;;
54883;SDS011;40776;52.880;6.016;2023-10-09T01:57:12;47.33;;;23.08;;
54883;SDS011;40776;52.880;6.016;2023-10-09T01:59:41;52.13;;;24.55;;
54883;SDS011;40776;52.880;6.016;2023-10-09T02:02:14;53.45;;;24.50;;
54883;SDS011;40776;52.880;6.016;2023-10-09T02:04:54;56.35;;;25.88;;
54883;SDS011;40776;52.880;6.016;2023-10-09T02:07:30;54.92;;;24.52;;
54883;SDS011;40776;52.880;6.016;2023-10-09T02:10:05;56.83;;;25.67;;
54883;SDS011;40776;52.880;6.016;2023-10-09T02:12:36;46.45;;;23.17;;
54883;SDS011;40776;52.880;6.016;2023-10-09T02:15:03;57.10;;;26.73;;
54883;SDS011;40776;52.880;6.016;2023-10-09T02:17:40;65.88;;;28.73;;
54883;SDS011;40776;52.880;6.016;2023-10-09T02:20:17;67.05;;;27.75;;
54883;SDS011;40776;52.880;6.016;2023-10-09T02:22:53;69.00;;;29.33;;
54883;SDS011;40776;52.880;6.016;2023-10-09T02:25:20;70.45;;;29.10;;
54883;SDS011;40776;52.880;6.016;2023-10-09T02:27:47;68.63;;;29.73;;
54883;SDS011;40776;52.880;6.016;2023-10-09T02:30:20;68.05;;;29.08;;
54883;SDS011;40776;52.880;6.016;2023-10-09T02:32:52;67.43;;;28.40;;
54883;SDS011;40776;52.880;6.016;2023-10-09T02:35:24;68.03;;;30.27;;
54883;SDS011;40776;52.880;6.016;2023-10-09T02:38:07;73.10;;;31.50;;
54883;SDS011;40776;52.880;6.016;2023-10-09T02:40:39;68.75;;;31.23;;
54883;SDS011;40776;52.880;6.016;2023-10-09T02:43:25;71.50;;;30.85;;
54883;SDS011;40776;52.880;6.016;2023-10-09T02:45:51;76.20;;;32.05;;
54883;SDS011;40776;52.880;6.016;2023-10-09T02:48:18;63.05;;;30.00;;
54883;SDS011;40776;52.880;6.016;2023-10-09T02:50:45;74.30;;;31.35;;
54883;SDS011;40776;52.880;6.016;2023-10-09T02:53:11;79.22;;;32.80;;
54883;SDS011;40776;52.880;6.016;2023-10-09T02:55:45;83.75;;;32.38;;
54883;SDS011;40776;52.880;6.016;2023-10-09T02:58:30;63.47;;;30.05;;
54883;SDS011;40776;52.880;6.016;2023-10-09T03:01:01;73.13;;;31.30;;
54883;SDS011;40776;52.880;6.016;2023-10-09T03:03:27;63.85;;;30.48;;
54883;SDS011;40776;52.880;6.016;2023-10-09T03:05:53;75.75;;;31.10;;
54883;SDS011;40776;52.880;6.016;2023-10-09T03:08:19;80.22;;;32.95;;
54883;SDS011;40776;52.880;6.016;2023-10-09T03:10:45;80.20;;;34.13;;
54883;SDS011;40776;52.880;6.016;2023-10-09T03:13:13;76.13;;;32.60;;
54883;SDS011;40776;52.880;6.016;2023-10-09T03:15:44;74.22;;;31.58;;
54883;SDS011;40776;52.880;6.016;2023-10-09T03:18:10;67.07;;;30.33;;
54883;SDS011;40776;52.880;6.016;2023-10-09T03:20:39;69.32;;;29.40;;
54883;SDS011;40776;52.880;6.016;2023-10-09T03:23:06;65.10;;;31.58;;
54883;SDS011;40776;52.880;6.016;2023-10-09T03:25:34;61.72;;;28.48;;
54883;SDS011;40776;52.880;6.016;2023-10-09T03:28:02;64.68;;;28.63;;
54883;SDS011;40776;52.880;6.016;2023-10-09T03:30:28;66.32;;;29.58;;
54883;SDS011;40776;52.880;6.016;2023-10-09T03:32:57;55.63;;;27.15;;
54883;SDS011;40776;52.880;6.016;2023-10-09T03:35:25;59.47;;;27.42;;
54883;SDS011;40776;52.880;6.016;2023-10-09T03:37:58;55.63;;;27.48;;
54883;SDS011;40776;52.880;6.016;2023-10-09T03:40:37;53.75;;;25.88;;
54883;SDS011;40776;52.880;6.016;2023-10-09T03:43:04;53.63;;;24.88;;
54883;SDS011;40776;52.880;6.016;2023-10-09T03:45:30;48.50;;;24.98;;
54883;SDS011;40776;52.880;6.016;2023-10-09T03:48:00;42.53;;;23.05;;
54883;SDS011;40776;52.880;6.016;2023-10-09T03:50:47;40.55;;;23.23;;
54883;SDS011;40776;52.880;6.016;2023-10-09T03:53:14;39.83;;;22.15;;
54883;SDS011;40776;52.880;6.016;2023-10-09T03:55:41;40.20;;;21.15;;
54883;SDS011;40776;52.880;6.016;2023-10-09T03:58:07;41.95;;;21.23;;
54883;SDS011;40776;52.880;6.016;2023-10-09T04:00:37;43.90;;;22.02;;
54883;SDS011;40776;52.880;6.016;2023-10-09T04:03:10;38.85;;;19.58;;
54883;SDS011;40776;52.880;6.016;2023-10-09T04:05:36;43.45;;;20.48;;
54883;SDS011;40776;52.880;6.016;2023-10-09T04:08:07;45.60;;;23.75;;
54883;SDS011;40776;52.880;6.016;2023-10-09T04:10:37;39.63;;;19.63;;
54883;SDS011;40776;52.880;6.016;2023-10-09T04:13:16;36.58;;;18.60;;
54883;SDS011;40776;52.880;6.016;2023-10-09T04:15:47;37.33;;;18.13;;
54883;SDS011;40776;52.880;6.016;2023-10-09T04:18:15;37.13;;;18.70;;
54883;SDS011;40776;52.880;6.016;2023-10-09T04:20:42;41.03;;;19.00;;
54883;SDS011;40776;52.880;6.016;2023-10-09T04:23:26;36.00;;;19.23;;
54883;SDS011;40776;52.880;6.016;2023-10-09T04:26:21;32.88;;;17.38;;
54883;SDS011;40776;52.880;6.016;2023-10-09T04:28:50;35.75;;;16.90;;
54883;SDS011;40776;52.880;6.016;2023-10-09T04:31:20;36.45;;;16.77;;
54883;SDS011;40776;52.880;6.016;2023-10-09T04:33:56;33.00;;;17.25;;
54883;SDS011;40776;52.880;6.016;2023-10-09T04:36:42;27.45;;;15.02;;
54883;SDS011;40776;52.880;6.016;2023-10-09T04:39:11;32.80;;;16.17;;
54883;SDS011;40776;52.880;6.016;2023-10-09T04:41:41;28.80;;;15.40;;
54883;SDS011;40776;52.880;6.016;2023-10-09T04:44:07;31.90;;;15.48;;
54883;SDS011;40776;52.880;6.016;2023-10-09T04:46:42;29.92;;;16.15;;
54883;SDS011;40776;52.880;6.016;2023-10-09T04:49:11;26.13;;;14.02;;
54883;SDS011;40776;52.880;6.016;2023-10-09T04:51:52;29.88;;;14.48;;
54883;SDS011;40776;52.880;6.016;2023-10-09T04:54:34;23.80;;;12.02;;
54883;SDS011;40776;52.880;6.016;2023-10-09T04:57:26;23.88;;;12.20;;
54883;SDS011;40776;52.880;6.016;2023-10-09T04:59:52;23.75;;;12.00;;
54883;SDS011;40776;52.880;6.016;2023-10-09T05:04:49;21.88;;;10.70;;
54883;SDS011;40776;52.880;6.016;2023-10-09T05:07:38;25.25;;;11.40;;
54883;SDS011;40776;52.880;6.016;2023-10-09T05:10:22;25.15;;;10.90;;
54883;SDS011;40776;52.880;6.016;2023-10-09T05:12:51;22.60;;;10.77;;
54883;SDS011;40776;52.880;6.016;2023-10-09T05:15:23;19.88;;;10.05;;
54883;SDS011;40776;52.880;6.016;2023-10-09T05:17:55;21.40;;;9.48;;
54883;SDS011;40776;52.880;6.016;2023-10-09T05:20:34;23.10;;;9.43;;
54883;SDS011;40776;52.880;6.016;2023-10-09T05:23:18;18.80;;;9.35;;
54883;SDS011;40776;52.880;6.016;2023-10-09T05:25:51;20.83;;;10.18;;
54883;SDS011;40776;52.880;6.016;2023-10-09T05:28:21;23.25;;;9.77;;
54883;SDS011;40776;52.880;6.016;2023-10-09T05:30:56;22.42;;;10.18;;
54883;SDS011;40776;52.880;6.016;2023-10-09T05:33:55;21.90;;;8.77;;
54883;SDS011;40776;52.880;6.016;2023-10-09T05:36:26;19.42;;;8.43;;
54883;SDS011;40776;52.880;6.016;2023-10-09T05:38:52;23.25;;;8.90;;
54883;SDS011;40776;52.880;6.016;2023-10-09T05:41:46;18.75;;;9.23;;
54883;SDS011;40776;52.880;6.016;2023-10-09T05:44:24;16.40;;;7.68;;
54883;SDS011;40776;52.880;6.016;2023-10-09T05:47:03;20.92;;;8.60;;
54883;SDS011;40776;52.880;6.016;2023-10-09T05:49:47;25.30;;;8.98;;
54883;SDS011;40776;52.880;6.016;2023-10-09T05:52:23;23.10;;;8.50;;
54883;SDS011;40776;52.880;6.016;2023-10-09T05:55:18;19.20;;;7.95;;
54883;SDS011;40776;52.880;6.016;2023-10-09T05:58:04;20.45;;;7.80;;
54883;SDS011;40776;52.880;6.016;2023-10-09T06:00:50;16.58;;;8.07;;
54883;SDS011;40776;52.880;6.016;2023-10-09T06:03:34;19.60;;;7.43;;
54883;SDS011;40776;52.880;6.016;2023-10-09T06:06:22;20.52;;;9.25;;
54883;SDS011;40776;52.880;6.016;2023-10-09T06:09:04;21.45;;;8.68;;
54883;SDS011;40776;52.880;6.016;2023-10-09T06:11:40;18.27;;;6.97;;
54883;SDS011;40776;52.880;6.016;2023-10-09T06:14:08;21.88;;;7.78;;
54883;SDS011;40776;52.880;6.016;2023-10-09T06:16:38;19.92;;;7.63;;
54883;SDS011;40776;52.880;6.016;2023-10-09T06:19:07;18.80;;;8.23;;
54883;SDS011;40776;52.880;6.016;2023-10-09T06:21:40;23.83;;;8.63;;
54883;SDS011;40776;52.880;6.016;2023-10-09T06:24:25;19.85;;;8.93;;
54883;SDS011;40776;52.880;6.016;2023-10-09T06:26:58;21.45;;;8.43;;
54883;SDS011;40776;52.880;6.016;2023-10-09T06:29:28;22.42;;;9.15;;
54883;SDS011;40776;52.880;6.016;2023-10-09T06:32:04;18.33;;;7.68;;
54883;SDS011;40776;52.880;6.016;2023-10-09T06:34:58;20.55;;;8.32;;
54883;SDS011;40776;52.880;6.016;2023-10-09T06:40:31;17.92;;;7.88;;
54883;SDS011;40776;52.880;6.016;2023-10-09T06:43:16;25.20;;;10.05;;
54883;SDS011;40776;52.880;6.016;2023-10-09T06:45:45;19.95;;;7.88;;
54883;SDS011;40776;52.880;6.016;2023-10-09T06:48:19;23.35;;;8.40;;
54883;SDS011;40776;52.880;6.016;2023-10-09T06:51:04;22.00;;;7.78;;
54883;SDS011;40776;52.880;6.016;2023-10-09T06:53:49;19.33;;;7.57;;
54883;SDS011;40776;52.880;6.016;2023-10-09T06:56:28;20.40;;;8.45;;
54883;SDS011;40776;52.880;6.016;2023-10-09T06:58:54;19.83;;;8.25;;
54883;SDS011;40776;52.880;6.016;2023-10-09T07:01:23;16.73;;;8.10;;
54883;SDS011;40776;52.880;6.016;2023-10-09T07:03:52;19.17;;;7.97;;
54883;SDS011;40776;52.880;6.016;2023-10-09T07:06:18;25.02;;;8.57;;
54883;SDS011;40776;52.880;6.016;2023-10-09T07:09:11;18.63;;;8.57;;
54883;SDS011;40776;52.880;6.016;2023-10-09T07:16:32;18.42;;;8.82;;
54883;SDS011;40776;52.880;6.016;2023-10-09T07:19:06;22.25;;;8.00;;
54883;SDS011;40776;52.880;6.016;2023-10-09T07:21:44;22.90;;;8.07;;
54883;SDS011;40776;52.880;6.016;2023-10-09T07:24:19;22.23;;;8.18;;
54883;SDS011;40776;52.880;6.016;2023-10-09T07:26:49;23.40;;;8.23;;
54883;SDS011;40776;52.880;6.016;2023-10-09T07:29:21;25.85;;;8.85;;
54883;SDS011;40776;52.880;6.016;2023-10-09T07:31:48;24.55;;;8.20;;
54883;SDS011;40776;52.880;6.016;2023-10-09T07:34:22;22.65;;;7.82;;
54883;SDS011;40776;52.880;6.016;2023-10-09T07:37:08;17.48;;;7.93;;
54883;SDS011;40776;52.880;6.016;2023-10-09T07:39:35;18.25;;;7.75;;
54883;SDS011;40776;52.880;6.016;2023-10-09T07:42:02;21.00;;;7.65;;
54883;SDS011;40776;52.880;6.016;2023-10-09T07:44:40;28.90;;;8.00;;
54883;SDS011;40776;52.880;6.016;2023-10-09T07:47:11;16.33;;;6.85;;
54883;SDS011;40776;52.880;6.016;2023-10-09T07:50:11;18.15;;;7.40;;
54883;SDS011;40776;52.880;6.016;2023-10-09T07:52:37;24.17;;;7.55;;
54883;SDS011;40776;52.880;6.016;2023-10-09T07:55:10;23.58;;;7.93;;
54883;SDS011;40776;52.880;6.016;2023-10-09T07:57:51;21.08;;;7.28;;
54883;SDS011;40776;52.880;6.016;2023-10-09T08:00:17;23.67;;;7.53;;
54883;SDS011;40776;52.880;6.016;2023-10-09T08:03:01;18.23;;;8.02;;
54883;SDS011;40776;52.880;6.016;2023-10-09T08:05:28;16.77;;;7.28;;
54883;SDS011;40776;52.880;6.016;2023-10-09T08:08:11;22.02;;;8.15;;
54883;SDS011;40776;52.880;6.016;2023-10-09T08:11:02;22.42;;;9.15;;
54883;SDS011;40776;52.880;6.016;2023-10-09T08:13:47;16.65;;;8.15;;
54883;SDS011;40776;52.880;6.016;2023-10-09T08:16:25;18.50;;;8.07;;
54883;SDS011;40776;52.880;6.016;2023-10-09T08:19:02;21.35;;;7.63;;
54883;SDS011;40776;52.880;6.016;2023-10-09T08:21:48;17.27;;;8.02;;
54883;SDS011;40776;52.880;6.016;2023-10-09T08:24:34;24.10;;;8.48;;
54883;SDS011;40776;52.880;6.016;2023-10-09T08:27:06;19.13;;;8.23;;
54883;SDS011;40776;52.880;6.016;2023-10-09T08:29:51;24.20;;;8.77;;
54883;SDS011;40776;52.880;6.016;2023-10-09T08:32:37;24.33;;;8.60;;
54883;SDS011;40776;52.880;6.016;2023-10-09T08:35:08;17.83;;;8.65;;
54883;SDS011;40776;52.880;6.016;2023-10-09T08:37:53;19.80;;;8.70;;
54883;SDS011;40776;52.880;6.016;2023-10-09T08:40:30;23.48;;;9.07;;
54883;SDS011;40776;52.880;6.016;2023-10-09T08:42:58;26.95;;;9.02;;
54883;SDS011;40776;52.880;6.016;2023-10-09T08:45:28;25.35;;;9.05;;
54883;SDS011;40776;52.880;6.016;2023-10-09T08:47:54;20.58;;;9.20;;
54883;SDS011;40776;52.880;6.016;2023-10-09T08:50:20;24.25;;;9.50;;
54883;SDS011;40776;52.880;6.016;2023-10-09T08:52:47;22.70;;;9.27;;
54883;SDS011;40776;52.880;6.016;2023-10-09T08:55:15;27.88;;;9.43;;
54883;SDS011;40776;52.880;6.016;2023-10-09T08:57:47;18.25;;;7.53;;
54883;SDS011;40776;52.880;6.016;2023-10-09T09:00:17;20.27;;;7.45;;
54883;SDS011;40776;52.880;6.016;2023-10-09T09:02:50;21.00;;;7.35;;
54883;SDS011;40776;52.880;6.016;2023-10-09T09:05:18;35.40;;;10.85;;
54883;SDS011;40776;52.880;6.016;2023-10-09T09:07:46;22.73;;;7.53;;
54883;SDS011;40776;52.880;6.016;2023-10-09T09:10:13;20.08;;;7.28;;
54883;SDS011;40776;52.880;6.016;2023-10-09T09:12:49;19.80;;;6.22;;
54883;SDS011;40776;52.880;6.016;2023-10-09T09:15:25;17.83;;;7.40;;
54883;SDS011;40776;52.880;6.016;2023-10-09T09:18:02;22.10;;;7.07;;
54883;SDS011;40776;52.880;6.016;2023-10-09T09:20:31;20.58;;;8.25;;
54883;SDS011;40776;52.880;6.016;2023-10-09T09:23:10;18.35;;;6.90;;
54883;SDS011;40776;52.880;6.016;2023-10-09T09:28:13;21.13;;;7.57;;
54883;SDS011;40776;52.880;6.016;2023-10-09T09:30:44;14.85;;;6.78;;
54883;SDS011;40776;52.880;6.016;2023-10-09T09:33:22;22.85;;;7.15;;
54883;SDS011;40776;52.880;6.016;2023-10-09T09:36:24;16.50;;;6.75;;
54883;SDS011;40776;52.880;6.016;2023-10-09T09:38:54;22.55;;;7.40;;
54883;SDS011;40776;52.880;6.016;2023-10-09T09:41:26;15.82;;;6.05;;
54883;SDS011;40776;52.880;6.016;2023-10-09T09:43:56;22.00;;;7.63;;
54883;SDS011;40776;52.880;6.016;2023-10-09T09:46:25;20.27;;;7.37;;
54883;SDS011;40776;52.880;6.016;2023-10-09T09:49:01;19.08;;;6.32;;
54883;SDS011;40776;52.880;6.016;2023-10-09T09:51:31;22.45;;;6.90;;
54883;SDS011;40776;52.880;6.016;2023-10-09T09:53:57;19.47;;;6.40;;
54883;SDS011;40776;52.880;6.016;2023-10-09T09:56:24;17.20;;;6.35;;
54883;SDS011;40776;52.880;6.016;2023-10-09T09:58:51;17.73;;;7.05;;
54883;SDS011;40776;52.880;6.016;2023-10-09T10:01:39;19.40;;;6.22;;
54883;SDS011;40776;52.880;6.016;2023-10-09T10:04:08;20.80;;;6.38;;
54883;SDS011;40776;52.880;6.016;2023-10-09T10:06:40;13.80;;;5.68;;
54883;SDS011;40776;52.880;6.016;2023-10-09T10:09:07;18.33;;;6.35;;
54883;SDS011;40776;52.880;6.016;2023-10-09T10:11:43;18.48;;;6.30;;
54883;SDS011;40776;52.880;6.016;2023-10-09T10:14:10;23.38;;;7.78;;
54883;SDS011;40776;52.880;6.016;2023-10-09T10:17:02;22.35;;;7.07;;
54883;SDS011;40776;52.880;6.016;2023-10-09T10:22:27;20.50;;;7.70;;
54883;SDS011;40776;52.880;6.016;2023-10-09T10:24:53;15.35;;;6.03;;
54883;SDS011;40776;52.880;6.016;2023-10-09T10:27:20;23.55;;;6.88;;
54883;SDS011;40776;52.880;6.016;2023-10-09T10:35:21;18.90;;;6.15;;
54883;SDS011;40776;52.880;6.016;2023-10-09T10:41:07;23.60;;;6.20;;
54883;SDS011;40776;52.880;6.016;2023-10-09T10:43:35;20.88;;;6.07;;
54883;SDS011;40776;52.880;6.016;2023-10-09T10:46:14;20.23;;;6.22;;
54883;SDS011;40776;52.880;6.016;2023-10-09T10:48:43;17.58;;;5.97;;
54883;SDS011;40776;52.880;6.016;2023-10-09T10:51:13;14.20;;;6.13;;
54883;SDS011;40776;52.880;6.016;2023-10-09T10:53:50;19.40;;;6.38;;
54883;SDS011;40776;52.880;6.016;2023-10-09T10:56:18;16.90;;;6.25;;
54883;SDS011;40776;52.880;6.016;2023-10-09T10:58:53;18.20;;;5.72;;
54883;SDS011;40776;52.880;6.016;2023-10-09T11:01:20;17.52;;;6.22;;
54883;SDS011;40776;52.880;6.016;2023-10-09T11:03:51;14.68;;;6.05;;
54883;SDS011;40776;52.880;6.016;2023-10-09T11:06:30;13.77;;;5.83;;
54883;SDS011;40776;52.880;6.016;2023-10-09T11:09:06;16.45;;;6.22;;
54883;SDS011;40776;52.880;6.016;2023-10-09T11:11:47;13.70;;;5.82;;
54883;SDS011;40776;52.880;6.016;2023-10-09T11:14:14;17.13;;;5.93;;
54883;SDS011;40776;52.880;6.016;2023-10-09T11:16:41;18.38;;;6.35;;
54883;SDS011;40776;52.880;6.016;2023-10-09T11:19:14;18.70;;;6.70;;
54883;SDS011;40776;52.880;6.016;2023-10-09T11:21:52;16.85;;;5.63;;
54883;SDS011;40776;52.880;6.016;2023-10-09T11:24:27;12.55;;;4.90;;
54883;SDS011;40776;52.880;6.016;2023-10-09T11:26:59;13.70;;;5.03;;
54883;SDS011;40776;52.880;6.016;2023-10-09T11:29:34;15.30;;;4.75;;
54883;SDS011;40776;52.880;6.016;2023-10-09T11:32:30;13.88;;;4.55;;
54883;SDS011;40776;52.880;6.016;2023-10-09T11:35:13;10.43;;;3.83;;
54883;SDS011;40776;52.880;6.016;2023-10-09T11:37:45;11.93;;;4.20;;
54883;SDS011;40776;52.880;6.016;2023-10-09T11:40:27;11.82;;;4.13;;
54883;SDS011;40776;52.880;6.016;2023-10-09T11:42:59;10.07;;;3.97;;
54883;SDS011;40776;52.880;6.016;2023-10-09T11:45:28;10.65;;;4.57;;
54883;SDS011;40776;52.880;6.016;2023-10-09T11:47:56;8.32;;;3.58;;
54883;SDS011;40776;52.880;6.016;2023-10-09T11:50:46;12.65;;;3.75;;
54883;SDS011;40776;52.880;6.016;2023-10-09T11:53:16;11.05;;;3.75;;
54883;SDS011;40776;52.880;6.016;2023-10-09T11:55:44;16.77;;;3.60;;
54883;SDS011;40776;52.880;6.016;2023-10-09T11:58:13;10.13;;;3.45;;
54883;SDS011;40776;52.880;6.016;2023-10-09T12:00:40;8.88;;;3.22;;
54883;SDS011;40776;52.880;6.016;2023-10-09T12:03:12;10.95;;;3.13;;
54883;SDS011;40776;52.880;6.016;2023-10-09T12:05:39;12.60;;;3.38;;
54883;SDS011;40776;52.880;6.016;2023-10-09T12:08:12;8.13;;;2.45;;
54883;SDS011;40776;52.880;6.016;2023-10-09T12:10:40;7.63;;;2.80;;
54883;SDS011;40776;52.880;6.016;2023-10-09T12:13:07;8.98;;;2.95;;
54883;SDS011;40776;52.880;6.016;2023-10-09T12:15:33;8.60;;;2.40;;
54883;SDS011;40776;52.880;6.016;2023-10-09T12:18:04;8.07;;;2.65;;
54883;SDS011;40776;52.880;6.016;2023-10-09T12:20:32;9.80;;;2.37;;
54883;SDS011;40776;52.880;6.016;2023-10-09T12:22:59;5.18;;;1.75;;
54883;SDS011;40776;52.880;6.016;2023-10-09T12:25:25;6.50;;;1.58;;
54883;SDS011;40776;52.880;6.016;2023-10-09T12:27:56;4.85;;;1.85;;
54883;SDS011;40776;52.880;6.016;2023-10-09T12:30:22;6.03;;;2.05;;
54883;SDS011;40776;52.880;6.016;2023-10-09T12:32:55;8.00;;;2.37;;
54883;SDS011;40776;52.880;6.016;2023-10-09T12:35:25;12.63;;;2.35;;
54883;SDS011;40776;52.880;6.016;2023-10-09T12:37:53;12.88;;;2.28;;
54883;SDS011;40776;52.880;6.016;2023-10-09T12:40:20;10.30;;;2.40;;
54883;SDS011;40776;52.880;6.016;2023-10-09T12:42:49;6.50;;;3.10;;
54883;SDS011;40776;52.880;6.016;2023-10-09T12:45:15;9.10;;;2.30;;
54883;SDS011;40776;52.880;6.016;2023-10-09T12:47:43;6.43;;;2.10;;
54883;SDS011;40776;52.880;6.016;2023-10-09T12:50:09;8.07;;;2.58;;
54883;SDS011;40776;52.880;6.016;2023-10-09T12:52:39;7.68;;;2.22;;
54883;SDS011;40776;52.880;6.016;2023-10-09T12:55:05;6.70;;;2.55;;
54883;SDS011;40776;52.880;6.016;2023-10-09T12:57:34;8.00;;;2.30;;
54883;SDS011;40776;52.880;6.016;2023-10-09T13:00:01;10.02;;;2.03;;
54883;SDS011;40776;52.880;6.016;2023-10-09T13:02:36;9.85;;;2.65;;
54883;SDS011;40776;52.880;6.016;2023-10-09T13:05:02;9.70;;;2.70;;
54883;SDS011;40776;52.880;6.016;2023-10-09T13:09:58;9.63;;;2.75;;
54883;SDS011;40776;52.880;6.016;2023-10-09T13:12:33;16.45;;;3.65;;
54883;SDS011;40776;52.880;6.016;2023-10-09T13:15:06;13.55;;;3.42;;
54883;SDS011;40776;52.880;6.016;2023-10-09T13:17:35;9.48;;;3.10;;
54883;SDS011;40776;52.880;6.016;2023-10-09T13:20:04;12.88;;;3.15;;
54883;SDS011;40776;52.880;6.016;2023-10-09T13:22:40;12.07;;;3.03;;
54883;SDS011;40776;52.880;6.016;2023-10-09T13:25:10;12.07;;;2.88;;
54883;SDS011;40776;52.880;6.016;2023-10-09T13:27:49;14.02;;;3.53;;
54883;SDS011;40776;52.880;6.016;2023-10-09T13:30:16;13.25;;;3.00;;
54883;SDS011;40776;52.880;6.016;2023-10-09T13:32:47;16.73;;;3.88;;
54883;SDS011;40776;52.880;6.016;2023-10-09T13:35:15;14.10;;;3.40;;
54883;SDS011;40776;52.880;6.016;2023-10-09T13:37:42;15.95;;;4.20;;
54883;SDS011;40776;52.880;6.016;2023-10-09T13:40:09;9.98;;;3.20;;
54883;SDS011;40776;52.880;6.016;2023-10-09T13:42:37;13.30;;;4.82;;
54883;SDS011;40776;52.880;6.016;2023-10-09T13:45:03;11.32;;;4.20;;
54883;SDS011;40776;52.880;6.016;2023-10-09T13:47:32;16.67;;;4.70;;
54883;SDS011;40776;52.880;6.016;2023-10-09T13:50:02;14.13;;;4.30;;
54883;SDS011;40776;52.880;6.016;2023-10-09T13:52:28;11.43;;;3.80;;
54883;SDS011;40776;52.880;6.016;2023-10-09T13:54:55;11.15;;;3.42;;
54883;SDS011;40776;52.880;6.016;2023-10-09T13:57:23;12.05;;;3.67;;
54883;SDS011;40776;52.880;6.016;2023-10-09T13:59:56;13.77;;;4.10;;
54883;SDS011;40776;52.880;6.016;2023-10-09T14:02:25;12.95;;;3.20;;
54883;SDS011;40776;52.880;6.016;2023-10-09T14:04:53;12.32;;;3.63;;
54883;SDS011;40776;52.880;6.016;2023-10-09T14:07:22;12.15;;;3.50;;
54883;SDS011;40776;52.880;6.016;2023-10-09T14:09:48;11.65;;;3.65;;
54883;SDS011;40776;52.880;6.016;2023-10-09T14:12:21;9.45;;;3.00;;
54883;SDS011;40776;52.880;6.016;2023-10-09T14:14:47;9.25;;;2.58;;
54883;SDS011;40776;52.880;6.016;2023-10-09T14:17:14;13.85;;;3.35;;
54883;SDS011;40776;52.880;6.016;2023-10-09T14:19:44;10.88;;;3.45;;
54883;SDS011;40776;52.880;6.016;2023-10-09T14:22:16;10.00;;;3.10;;
54883;SDS011;40776;52.880;6.016;2023-10-09T14:24:43;10.25;;;3.50;;
54883;SDS011;40776;52.880;6.016;2023-10-09T14:27:13;11.07;;;3.00;;
54883;SDS011;40776;52.880;6.016;2023-10-09T14:29:45;13.82;;;3.17;;
54883;SDS011;40776;52.880;6.016;2023-10-09T14:32:12;10.65;;;3.05;;
54883;SDS011;40776;52.880;6.016;2023-10-09T14:34:41;14.63;;;3.35;;
54883;SDS011;40776;52.880;6.016;2023-10-09T14:37:19;10.77;;;3.78;;
54883;SDS011;40776;52.880;6.016;2023-10-09T14:39:48;14.80;;;3.30;;
54883;SDS011;40776;52.880;6.016;2023-10-09T14:42:15;11.07;;;3.33;;
54883;SDS011;40776;52.880;6.016;2023-10-09T14:44:43;14.88;;;4.13;;
54883;SDS011;40776;52.880;6.016;2023-10-09T14:47:14;12.15;;;3.03;;
54883;SDS011;40776;52.880;6.016;2023-10-09T14:49:40;14.82;;;3.70;;
54883;SDS011;40776;52.880;6.016;2023-10-09T14:52:11;10.25;;;3.08;;
54883;SDS011;40776;52.880;6.016;2023-10-09T14:54:41;9.95;;;3.00;;
54883;SDS011;40776;52.880;6.016;2023-10-09T14:57:07;13.45;;;3.50;;
54883;SDS011;40776;52.880;6.016;2023-10-09T14:59:36;9.50;;;3.17;;
54883;SDS011;40776;52.880;6.016;2023-10-09T15:02:02;12.30;;;2.90;;
54883;SDS011;40776;52.880;6.016;2023-10-09T15:04:30;8.70;;;3.38;;
54883;SDS011;40776;52.880;6.016;2023-10-09T15:06:56;12.18;;;2.72;;
54883;SDS011;40776;52.880;6.016;2023-10-09T15:09:22;13.85;;;2.67;;
54883;SDS011;40776;52.880;6.016;2023-10-09T15:11:53;8.90;;;2.63;;
54883;SDS011;40776;52.880;6.016;2023-10-09T15:14:19;13.00;;;2.38;;
54883;SDS011;40776;52.880;6.016;2023-10-09T15:16:45;11.63;;;2.83;;
54883;SDS011;40776;52.880;6.016;2023-10-09T15:19:12;8.45;;;2.78;;
54883;SDS011;40776;52.880;6.016;2023-10-09T15:21:38;11.60;;;3.95;;
54883;SDS011;40776;52.880;6.016;2023-10-09T15:24:12;13.23;;;2.85;;
54883;SDS011;40776;52.880;6.016;2023-10-09T15:26:50;11.88;;;3.13;;
54883;SDS011;40776;52.880;6.016;2023-10-09T15:29:26;7.35;;;2.70;;
54883;SDS011;40776;52.880;6.016;2023-10-09T15:31:58;11.25;;;2.60;;
54883;SDS011;40776;52.880;6.016;2023-10-09T15:34:33;9.27;;;2.70;;